sensor_id;sensor_type;location;lat;lon;timestamp;P1;durP1;ratioP1;P2;durP2;ratioP2
10645;SDS011;5371;49.782;9.932;2023-03-11T00:00:12;1.50;;;1.40;;
10645;SDS011;5371;49.782;9.932;2023-03-11T00:02:41;1.83;;;1.30;;
10645;SDS011;5371;49.782;9.932;2023-03-11T00:05:11;2.10;;;1.43;;
10645;SDS011;5371;49.782;9.932;2023-03-11T00:07:39;1.33;;;1.23;;
10645;SDS011;5371;49.782;9.932;2023-03-11T00:10:07;1.43;;;1.33;;
10645;SDS011;5371;49.782;9.932;2023-03-11T00:12:39;1.47;;;1.30;;
10645;SDS011;5371;49.782;9.932;2023-03-11T00:15:06;1.93;;;1.10;;
10645;SDS011;5371;49.782;9.932;2023-03-11T00:17:33;1.47;;;1.20;;
10645;SDS011;5371;49.782;9.932;2023-03-11T00:20:00;2.23;;;1.40;;
10645;SDS011;5371;49.782;9.932;2023-03-11T00:22:29;1.23;;;1.13;;
10645;SDS011;5371;49.782;9.932;2023-03-11T00:24:56;1.90;;;1.40;;
10645;SDS011;5371;49.782;9.932;2023-03-11T00:27:23;2.30;;;1.10;;
10645;SDS011;5371;49.782;9.932;2023-03-11T00:29:50;1.30;;;1.20;;
10645;SDS011;5371;49.782;9.932;2023-03-11T00:32:17;1.40;;;1.30;;
10645;SDS011;5371;49.782;9.932;2023-03-11T00:34:44;1.20;;;1.10;;
10645;SDS011;5371;49.782;9.932;2023-03-11T00:37:11;1.20;;;1.10;;
10645;SDS011;5371;49.782;9.932;2023-03-11T00:39:39;1.53;;;1.33;;
10645;SDS011;5371;49.782;9.932;2023-03-11T00:42:06;1.30;;;1.10;;
10645;SDS011;5371;49.782;9.932;2023-03-11T00:44:33;2.03;;;1.20;;
10645;SDS011;5371;49.782;9.932;2023-03-11T00:47:00;2.37;;;1.10;;
10645;SDS011;5371;49.782;9.932;2023-03-11T00:49:27;1.30;;;1.20;;
10645;SDS011;5371;49.782;9.932;2023-03-11T00:51:54;1.17;;;1.07;;
10645;SDS011;5371;49.782;9.932;2023-03-11T00:54:21;1.60;;;1.07;;
10645;SDS011;5371;49.782;9.932;2023-03-11T00:56:50;1.40;;;1.30;;
10645;SDS011;5371;49.782;9.932;2023-03-11T00:59:17;1.30;;;1.20;;
10645;SDS011;5371;49.782;9.932;2023-03-11T01:01:44;1.17;;;1.07;;
10645;SDS011;5371;49.782;9.932;2023-03-11T01:04:11;1.27;;;1.17;;
10645;SDS011;5371;49.782;9.932;2023-03-11T01:06:38;1.40;;;1.00;;
10645;SDS011;5371;49.782;9.932;2023-03-11T01:09:05;1.03;;;0.93;;
10645;SDS011;5371;49.782;9.932;2023-03-11T01:11:32;1.10;;;1.00;;
10645;SDS011;5371;49.782;9.932;2023-03-11T01:14:00;1.10;;;1.00;;
10645;SDS011;5371;49.782;9.932;2023-03-11T01:16:28;1.20;;;1.00;;
10645;SDS011;5371;49.782;9.932;2023-03-11T01:18:55;1.27;;;1.10;;
10645;SDS011;5371;49.782;9.932;2023-03-11T01:21:22;1.20;;;1.10;;
10645;SDS011;5371;49.782;9.932;2023-03-11T01:23:51;1.37;;;1.10;;
10645;SDS011;5371;49.782;9.932;2023-03-11T01:26:18;1.27;;;1.10;;
10645;SDS011;5371;49.782;9.932;2023-03-11T01:28:45;2.07;;;1.23;;
10645;SDS011;5371;49.782;9.932;2023-03-11T01:31:14;1.30;;;1.13;;
10645;SDS011;5371;49.782;9.932;2023-03-11T01:33:41;1.30;;;1.20;;
10645;SDS011;5371;49.782;9.932;2023-03-11T01:36:08;1.37;;;1.27;;
10645;SDS011;5371;49.782;9.932;2023-03-11T01:38:35;1.10;;;1.00;;
10645;SDS011;5371;49.782;9.932;2023-03-11T01:41:02;1.40;;;1.30;;
10645;SDS011;5371;49.782;9.932;2023-03-11T01:43:42;2.67;;;1.27;;
10645;SDS011;5371;49.782;9.932;2023-03-11T01:46:22;1.20;;;1.10;;
10645;SDS011;5371;49.782;9.932;2023-03-11T01:48:51;1.20;;;1.10;;
10645;SDS011;5371;49.782;9.932;2023-03-11T01:51:21;1.27;;;1.10;;
10645;SDS011;5371;49.782;9.932;2023-03-11T01:53:51;2.43;;;1.30;;
10645;SDS011;5371;49.782;9.932;2023-03-11T01:56:19;2.10;;;1.40;;
10645;SDS011;5371;49.782;9.932;2023-03-11T01:58:48;1.50;;;1.40;;
10645;SDS011;5371;49.782;9.932;2023-03-11T02:01:18;1.93;;;1.23;;
10645;SDS011;5371;49.782;9.932;2023-03-11T02:03:47;1.47;;;1.37;;
10645;SDS011;5371;49.782;9.932;2023-03-11T02:06:16;1.30;;;1.20;;
10645;SDS011;5371;49.782;9.932;2023-03-11T02:08:44;1.80;;;1.30;;
10645;SDS011;5371;49.782;9.932;2023-03-11T02:11:14;2.63;;;1.23;;
10645;SDS011;5371;49.782;9.932;2023-03-11T02:13:43;1.90;;;1.30;;
10645;SDS011;5371;49.782;9.932;2023-03-11T02:16:11;3.10;;;1.60;;
10645;SDS011;5371;49.782;9.932;2023-03-11T02:18:39;1.53;;;1.30;;
10645;SDS011;5371;49.782;9.932;2023-03-11T02:21:12;1.37;;;1.20;;
10645;SDS011;5371;49.782;9.932;2023-03-11T02:23:46;1.40;;;1.13;;
10645;SDS011;5371;49.782;9.932;2023-03-11T02:26:20;1.50;;;1.40;;
10645;SDS011;5371;49.782;9.932;2023-03-11T02:28:52;2.20;;;1.20;;
10645;SDS011;5371;49.782;9.932;2023-03-11T02:31:20;1.97;;;1.30;;
10645;SDS011;5371;49.782;9.932;2023-03-11T02:33:48;1.77;;;1.30;;
10645;SDS011;5371;49.782;9.932;2023-03-11T02:36:32;4.83;;;1.30;;
10645;SDS011;5371;49.782;9.932;2023-03-11T02:39:02;1.23;;;1.10;;
10645;SDS011;5371;49.782;9.932;2023-03-11T02:41:31;1.53;;;1.10;;
10645;SDS011;5371;49.782;9.932;2023-03-11T02:44:02;2.90;;;1.13;;
10645;SDS011;5371;49.782;9.932;2023-03-11T02:46:32;2.27;;;1.13;;
10645;SDS011;5371;49.782;9.932;2023-03-11T02:49:01;1.47;;;1.10;;
10645;SDS011;5371;49.782;9.932;2023-03-11T02:51:28;3.60;;;1.30;;
10645;SDS011;5371;49.782;9.932;2023-03-11T02:53:55;1.97;;;1.00;;
10645;SDS011;5371;49.782;9.932;2023-03-11T02:56:27;1.50;;;1.00;;
10645;SDS011;5371;49.782;9.932;2023-03-11T02:58:54;1.53;;;1.00;;
10645;SDS011;5371;49.782;9.932;2023-03-11T03:01:23;1.63;;;1.00;;
10645;SDS011;5371;49.782;9.932;2023-03-11T03:03:50;1.63;;;1.17;;
10645;SDS011;5371;49.782;9.932;2023-03-11T03:06:17;2.03;;;1.10;;
10645;SDS011;5371;49.782;9.932;2023-03-11T03:08:44;1.70;;;0.90;;
10645;SDS011;5371;49.782;9.932;2023-03-11T03:11:11;2.50;;;1.10;;
10645;SDS011;5371;49.782;9.932;2023-03-11T03:13:38;1.20;;;0.97;;
10645;SDS011;5371;49.782;9.932;2023-03-11T03:16:05;2.67;;;1.17;;
10645;SDS011;5371;49.782;9.932;2023-03-11T03:18:34;2.73;;;1.30;;
10645;SDS011;5371;49.782;9.932;2023-03-11T03:21:01;1.80;;;1.03;;
10645;SDS011;5371;49.782;9.932;2023-03-11T03:23:29;3.77;;;1.27;;
10645;SDS011;5371;49.782;9.932;2023-03-11T03:25:59;3.13;;;1.10;;
10645;SDS011;5371;49.782;9.932;2023-03-11T03:28:27;1.40;;;1.00;;
10645;SDS011;5371;49.782;9.932;2023-03-11T03:30:54;2.40;;;1.10;;
10645;SDS011;5371;49.782;9.932;2023-03-11T03:33:21;3.50;;;1.13;;
10645;SDS011;5371;49.782;9.932;2023-03-11T03:35:49;2.50;;;1.20;;
10645;SDS011;5371;49.782;9.932;2023-03-11T03:38:23;1.80;;;0.97;;
10645;SDS011;5371;49.782;9.932;2023-03-11T03:40:51;4.53;;;1.30;;
10645;SDS011;5371;49.782;9.932;2023-03-11T03:43:20;2.80;;;1.10;;
10645;SDS011;5371;49.782;9.932;2023-03-11T03:45:53;1.07;;;0.90;;
10645;SDS011;5371;49.782;9.932;2023-03-11T03:48:23;2.33;;;1.10;;
10645;SDS011;5371;49.782;9.932;2023-03-11T03:50:53;3.50;;;1.33;;
10645;SDS011;5371;49.782;9.932;2023-03-11T03:53:21;4.23;;;1.10;;
10645;SDS011;5371;49.782;9.932;2023-03-11T03:55:48;4.60;;;1.07;;
10645;SDS011;5371;49.782;9.932;2023-03-11T03:58:15;2.80;;;1.20;;
10645;SDS011;5371;49.782;9.932;2023-03-11T04:00:43;2.17;;;1.10;;
10645;SDS011;5371;49.782;9.932;2023-03-11T04:03:10;2.73;;;1.30;;
10645;SDS011;5371;49.782;9.932;2023-03-11T04:05:46;1.90;;;1.00;;
10645;SDS011;5371;49.782;9.932;2023-03-11T04:08:15;2.27;;;1.10;;
10645;SDS011;5371;49.782;9.932;2023-03-11T04:10:44;2.70;;;1.13;;
10645;SDS011;5371;49.782;9.932;2023-03-11T04:13:11;2.83;;;1.20;;
10645;SDS011;5371;49.782;9.932;2023-03-11T04:15:39;1.70;;;1.10;;
10645;SDS011;5371;49.782;9.932;2023-03-11T04:18:06;2.67;;;1.20;;
10645;SDS011;5371;49.782;9.932;2023-03-11T04:20:33;2.70;;;1.20;;
10645;SDS011;5371;49.782;9.932;2023-03-11T04:23:00;2.17;;;1.10;;
10645;SDS011;5371;49.782;9.932;2023-03-11T04:25:28;3.00;;;1.20;;
10645;SDS011;5371;49.782;9.932;2023-03-11T04:27:56;2.40;;;1.20;;
10645;SDS011;5371;49.782;9.932;2023-03-11T04:30:23;2.80;;;1.20;;
10645;SDS011;5371;49.782;9.932;2023-03-11T04:32:54;1.70;;;1.10;;
10645;SDS011;5371;49.782;9.932;2023-03-11T04:35:21;5.10;;;1.50;;
10645;SDS011;5371;49.782;9.932;2023-03-11T04:37:48;4.03;;;1.30;;
10645;SDS011;5371;49.782;9.932;2023-03-11T04:40:15;5.10;;;1.43;;
10645;SDS011;5371;49.782;9.932;2023-03-11T04:42:45;2.50;;;1.47;;
10645;SDS011;5371;49.782;9.932;2023-03-11T04:45:12;3.03;;;1.53;;
10645;SDS011;5371;49.782;9.932;2023-03-11T04:47:41;2.23;;;1.30;;
10645;SDS011;5371;49.782;9.932;2023-03-11T04:50:09;3.30;;;1.20;;
10645;SDS011;5371;49.782;9.932;2023-03-11T04:52:36;2.43;;;1.27;;
10645;SDS011;5371;49.782;9.932;2023-03-11T04:55:03;2.47;;;1.37;;
10645;SDS011;5371;49.782;9.932;2023-03-11T04:57:31;7.13;;;1.40;;
10645;SDS011;5371;49.782;9.932;2023-03-11T05:00:00;2.77;;;1.30;;
10645;SDS011;5371;49.782;9.932;2023-03-11T05:02:29;2.10;;;1.37;;
10645;SDS011;5371;49.782;9.932;2023-03-11T05:04:58;3.60;;;1.37;;
10645;SDS011;5371;49.782;9.932;2023-03-11T05:07:26;2.83;;;1.30;;
10645;SDS011;5371;49.782;9.932;2023-03-11T05:09:53;2.23;;;1.30;;
10645;SDS011;5371;49.782;9.932;2023-03-11T05:12:20;2.53;;;1.50;;
10645;SDS011;5371;49.782;9.932;2023-03-11T05:14:51;2.47;;;1.40;;
10645;SDS011;5371;49.782;9.932;2023-03-11T05:17:19;6.07;;;1.37;;
10645;SDS011;5371;49.782;9.932;2023-03-11T05:19:48;3.80;;;1.70;;
10645;SDS011;5371;49.782;9.932;2023-03-11T05:22:25;3.47;;;1.50;;
10645;SDS011;5371;49.782;9.932;2023-03-11T05:24:53;3.63;;;1.90;;
10645;SDS011;5371;49.782;9.932;2023-03-11T05:27:20;3.40;;;2.00;;
10645;SDS011;5371;49.782;9.932;2023-03-11T05:29:52;2.93;;;1.50;;
10645;SDS011;5371;49.782;9.932;2023-03-11T05:32:22;2.40;;;1.53;;
10645;SDS011;5371;49.782;9.932;2023-03-11T05:34:51;3.40;;;1.60;;
10645;SDS011;5371;49.782;9.932;2023-03-11T05:37:18;4.83;;;1.60;;
10645;SDS011;5371;49.782;9.932;2023-03-11T05:39:46;2.67;;;1.33;;
10645;SDS011;5371;49.782;9.932;2023-03-11T05:42:14;3.50;;;1.70;;
10645;SDS011;5371;49.782;9.932;2023-03-11T05:44:43;2.13;;;1.30;;
10645;SDS011;5371;49.782;9.932;2023-03-11T05:47:10;3.27;;;1.60;;
10645;SDS011;5371;49.782;9.932;2023-03-11T05:49:39;2.97;;;1.67;;
10645;SDS011;5371;49.782;9.932;2023-03-11T05:52:06;4.07;;;1.70;;
10645;SDS011;5371;49.782;9.932;2023-03-11T05:54:33;4.47;;;1.70;;
10645;SDS011;5371;49.782;9.932;2023-03-11T05:57:00;3.00;;;1.40;;
10645;SDS011;5371;49.782;9.932;2023-03-11T05:59:29;3.00;;;1.83;;
10645;SDS011;5371;49.782;9.932;2023-03-11T06:02:00;3.63;;;1.63;;
10645;SDS011;5371;49.782;9.932;2023-03-11T06:04:28;3.97;;;1.73;;
10645;SDS011;5371;49.782;9.932;2023-03-11T06:06:57;4.17;;;1.93;;
10645;SDS011;5371;49.782;9.932;2023-03-11T06:09:27;4.93;;;1.80;;
10645;SDS011;5371;49.782;9.932;2023-03-11T06:11:54;3.30;;;1.70;;
10645;SDS011;5371;49.782;9.932;2023-03-11T06:14:25;5.33;;;1.80;;
10645;SDS011;5371;49.782;9.932;2023-03-11T06:16:56;2.87;;;1.70;;
10645;SDS011;5371;49.782;9.932;2023-03-11T06:19:23;5.53;;;2.00;;
10645;SDS011;5371;49.782;9.932;2023-03-11T06:21:50;5.93;;;2.07;;
10645;SDS011;5371;49.782;9.932;2023-03-11T06:24:19;2.60;;;1.60;;
10645;SDS011;5371;49.782;9.932;2023-03-11T06:26:50;3.33;;;1.60;;
10645;SDS011;5371;49.782;9.932;2023-03-11T06:29:19;4.03;;;1.80;;
10645;SDS011;5371;49.782;9.932;2023-03-11T06:31:48;6.03;;;2.00;;
10645;SDS011;5371;49.782;9.932;2023-03-11T06:34:16;3.87;;;1.77;;
10645;SDS011;5371;49.782;9.932;2023-03-11T06:36:44;4.83;;;1.90;;
10645;SDS011;5371;49.782;9.932;2023-03-11T06:39:11;3.20;;;1.60;;
10645;SDS011;5371;49.782;9.932;2023-03-11T06:41:40;5.00;;;1.90;;
10645;SDS011;5371;49.782;9.932;2023-03-11T06:44:09;3.23;;;1.80;;
10645;SDS011;5371;49.782;9.932;2023-03-11T06:46:37;4.00;;;1.90;;
10645;SDS011;5371;49.782;9.932;2023-03-11T06:49:05;4.57;;;1.80;;
10645;SDS011;5371;49.782;9.932;2023-03-11T06:51:33;5.03;;;1.60;;
10645;SDS011;5371;49.782;9.932;2023-03-11T06:54:01;3.13;;;1.70;;
10645;SDS011;5371;49.782;9.932;2023-03-11T06:56:28;5.73;;;1.80;;
10645;SDS011;5371;49.782;9.932;2023-03-11T06:59:01;3.03;;;1.50;;
10645;SDS011;5371;49.782;9.932;2023-03-11T07:01:30;4.60;;;1.70;;
10645;SDS011;5371;49.782;9.932;2023-03-11T07:03:59;4.03;;;1.80;;
10645;SDS011;5371;49.782;9.932;2023-03-11T07:06:27;3.10;;;1.77;;
10645;SDS011;5371;49.782;9.932;2023-03-11T07:09:05;3.00;;;1.70;;
10645;SDS011;5371;49.782;9.932;2023-03-11T07:11:36;4.63;;;2.00;;
10645;SDS011;5371;49.782;9.932;2023-03-11T07:14:11;4.03;;;1.80;;
10645;SDS011;5371;49.782;9.932;2023-03-11T07:16:42;3.10;;;1.83;;
10645;SDS011;5371;49.782;9.932;2023-03-11T07:19:18;3.97;;;1.70;;
10645;SDS011;5371;49.782;9.932;2023-03-11T07:21:45;3.10;;;1.90;;
10645;SDS011;5371;49.782;9.932;2023-03-11T07:24:12;5.00;;;2.00;;
10645;SDS011;5371;49.782;9.932;2023-03-11T07:26:40;4.67;;;1.80;;
10645;SDS011;5371;49.782;9.932;2023-03-11T07:29:09;3.90;;;1.93;;
10645;SDS011;5371;49.782;9.932;2023-03-11T07:31:38;4.07;;;1.90;;
10645;SDS011;5371;49.782;9.932;2023-03-11T07:34:06;3.70;;;1.87;;
10645;SDS011;5371;49.782;9.932;2023-03-11T07:36:35;2.50;;;1.70;;
10645;SDS011;5371;49.782;9.932;2023-03-11T07:39:04;2.83;;;1.57;;
10645;SDS011;5371;49.782;9.932;2023-03-11T07:41:32;3.50;;;1.70;;
10645;SDS011;5371;49.782;9.932;2023-03-11T07:44:01;3.10;;;1.70;;
10645;SDS011;5371;49.782;9.932;2023-03-11T07:46:30;4.20;;;1.87;;
10645;SDS011;5371;49.782;9.932;2023-03-11T07:48:59;3.63;;;1.80;;
10645;SDS011;5371;49.782;9.932;2023-03-11T07:51:27;3.53;;;1.73;;
10645;SDS011;5371;49.782;9.932;2023-03-11T07:53:55;2.93;;;1.60;;
10645;SDS011;5371;49.782;9.932;2023-03-11T07:56:23;2.37;;;1.60;;
10645;SDS011;5371;49.782;9.932;2023-03-11T07:58:52;3.37;;;1.50;;
10645;SDS011;5371;49.782;9.932;2023-03-11T08:01:20;2.90;;;1.93;;
10645;SDS011;5371;49.782;9.932;2023-03-11T08:03:51;3.50;;;1.73;;
10645;SDS011;5371;49.782;9.932;2023-03-11T08:06:21;4.30;;;1.73;;
10645;SDS011;5371;49.782;9.932;2023-03-11T08:08:50;2.43;;;1.50;;
10645;SDS011;5371;49.782;9.932;2023-03-11T08:11:18;3.20;;;1.87;;
10645;SDS011;5371;49.782;9.932;2023-03-11T08:13:46;5.23;;;1.90;;
10645;SDS011;5371;49.782;9.932;2023-03-11T08:16:14;4.40;;;1.67;;
10645;SDS011;5371;49.782;9.932;2023-03-11T08:18:43;2.80;;;1.60;;
10645;SDS011;5371;49.782;9.932;2023-03-11T08:21:13;4.37;;;2.03;;
10645;SDS011;5371;49.782;9.932;2023-03-11T08:23:42;3.07;;;1.77;;
10645;SDS011;5371;49.782;9.932;2023-03-11T08:26:12;3.43;;;1.60;;
10645;SDS011;5371;49.782;9.932;2023-03-11T08:28:40;2.90;;;1.60;;
10645;SDS011;5371;49.782;9.932;2023-03-11T08:31:11;1.60;;;1.50;;
10645;SDS011;5371;49.782;9.932;2023-03-11T08:33:39;2.97;;;1.50;;
10645;SDS011;5371;49.782;9.932;2023-03-11T08:36:06;2.87;;;1.40;;
10645;SDS011;5371;49.782;9.932;2023-03-11T08:38:35;3.20;;;1.30;;
10645;SDS011;5371;49.782;9.932;2023-03-11T08:41:04;2.47;;;1.40;;
10645;SDS011;5371;49.782;9.932;2023-03-11T08:43:31;3.30;;;1.47;;
10645;SDS011;5371;49.782;9.932;2023-03-11T08:45:59;2.90;;;1.50;;
10645;SDS011;5371;49.782;9.932;2023-03-11T08:48:26;3.77;;;1.40;;
10645;SDS011;5371;49.782;9.932;2023-03-11T08:50:54;2.03;;;1.30;;
10645;SDS011;5371;49.782;9.932;2023-03-11T08:53:21;1.83;;;1.50;;
10645;SDS011;5371;49.782;9.932;2023-03-11T08:55:50;2.20;;;1.30;;
10645;SDS011;5371;49.782;9.932;2023-03-11T08:58:18;3.23;;;1.53;;
10645;SDS011;5371;49.782;9.932;2023-03-11T09:00:45;2.20;;;1.40;;
10645;SDS011;5371;49.782;9.932;2023-03-11T09:03:13;1.37;;;1.10;;
10645;SDS011;5371;49.782;9.932;2023-03-11T09:05:40;3.27;;;1.60;;
10645;SDS011;5371;49.782;9.932;2023-03-11T09:08:07;2.40;;;1.40;;
10645;SDS011;5371;49.782;9.932;2023-03-11T09:10:34;1.87;;;1.40;;
10645;SDS011;5371;49.782;9.932;2023-03-11T09:13:02;1.50;;;1.30;;
10645;SDS011;5371;49.782;9.932;2023-03-11T09:15:29;3.30;;;1.73;;
10645;SDS011;5371;49.782;9.932;2023-03-11T09:17:56;3.67;;;1.80;;
10645;SDS011;5371;49.782;9.932;2023-03-11T09:20:24;3.63;;;1.80;;
10645;SDS011;5371;49.782;9.932;2023-03-11T09:22:51;3.03;;;1.70;;
10645;SDS011;5371;49.782;9.932;2023-03-11T09:25:18;3.43;;;1.73;;
10645;SDS011;5371;49.782;9.932;2023-03-11T09:27:45;3.73;;;1.60;;
10645;SDS011;5371;49.782;9.932;2023-03-11T09:30:14;2.10;;;1.70;;
10645;SDS011;5371;49.782;9.932;2023-03-11T09:32:41;3.00;;;1.90;;
10645;SDS011;5371;49.782;9.932;2023-03-11T09:35:08;3.37;;;1.50;;
10645;SDS011;5371;49.782;9.932;2023-03-11T09:37:35;3.67;;;1.30;;
10645;SDS011;5371;49.782;9.932;2023-03-11T09:40:02;3.47;;;1.60;;
10645;SDS011;5371;49.782;9.932;2023-03-11T09:42:31;2.87;;;1.37;;
10645;SDS011;5371;49.782;9.932;2023-03-11T09:45:03;3.13;;;1.40;;
10645;SDS011;5371;49.782;9.932;2023-03-11T09:47:39;3.33;;;1.60;;
10645;SDS011;5371;49.782;9.932;2023-03-11T09:50:12;1.97;;;1.30;;
10645;SDS011;5371;49.782;9.932;2023-03-11T09:52:45;2.53;;;1.50;;
10645;SDS011;5371;49.782;9.932;2023-03-11T09:58:09;3.80;;;1.70;;
10645;SDS011;5371;49.782;9.932;2023-03-11T10:00:43;2.43;;;1.53;;
10645;SDS011;5371;49.782;9.932;2023-03-11T10:03:15;2.57;;;1.53;;
10645;SDS011;5371;49.782;9.932;2023-03-11T10:05:51;3.20;;;1.40;;
10645;SDS011;5371;49.782;9.932;2023-03-11T10:08:23;2.60;;;1.60;;
10645;SDS011;5371;49.782;9.932;2023-03-11T10:10:59;2.97;;;1.40;;
10645;SDS011;5371;49.782;9.932;2023-03-11T10:13:37;2.23;;;1.50;;
10645;SDS011;5371;49.782;9.932;2023-03-11T10:16:12;4.00;;;1.43;;
10645;SDS011;5371;49.782;9.932;2023-03-11T10:18:53;2.50;;;1.50;;
10645;SDS011;5371;49.782;9.932;2023-03-11T10:21:33;2.17;;;1.30;;
10645;SDS011;5371;49.782;9.932;2023-03-11T10:24:16;2.23;;;1.40;;
10645;SDS011;5371;49.782;9.932;2023-03-11T10:26:49;2.13;;;1.50;;
10645;SDS011;5371;49.782;9.932;2023-03-11T10:29:20;3.40;;;1.37;;
10645;SDS011;5371;49.782;9.932;2023-03-11T10:31:52;2.80;;;1.60;;
10645;SDS011;5371;49.782;9.932;2023-03-11T10:34:29;3.87;;;1.60;;
10645;SDS011;5371;49.782;9.932;2023-03-11T10:37:04;2.43;;;1.30;;
10645;SDS011;5371;49.782;9.932;2023-03-11T10:39:35;3.17;;;1.50;;
10645;SDS011;5371;49.782;9.932;2023-03-11T10:42:04;2.80;;;1.47;;
10645;SDS011;5371;49.782;9.932;2023-03-11T10:44:36;3.77;;;1.40;;
10645;SDS011;5371;49.782;9.932;2023-03-11T10:47:04;3.97;;;1.40;;
10645;SDS011;5371;49.782;9.932;2023-03-11T10:49:33;2.10;;;1.23;;
10645;SDS011;5371;49.782;9.932;2023-03-11T10:52:00;2.97;;;1.50;;
10645;SDS011;5371;49.782;9.932;2023-03-11T10:54:30;2.47;;;1.40;;
10645;SDS011;5371;49.782;9.932;2023-03-11T10:56:59;3.83;;;1.53;;
10645;SDS011;5371;49.782;9.932;2023-03-11T10:59:29;3.83;;;1.30;;
10645;SDS011;5371;49.782;9.932;2023-03-11T11:01:59;2.37;;;1.40;;
10645;SDS011;5371;49.782;9.932;2023-03-11T11:04:28;3.00;;;1.53;;
10645;SDS011;5371;49.782;9.932;2023-03-11T11:07:06;2.73;;;1.53;;
10645;SDS011;5371;49.782;9.932;2023-03-11T11:09:47;5.63;;;1.70;;
10645;SDS011;5371;49.782;9.932;2023-03-11T11:12:35;2.27;;;1.20;;
10645;SDS011;5371;49.782;9.932;2023-03-11T11:15:03;3.60;;;1.40;;
10645;SDS011;5371;49.782;9.932;2023-03-11T11:17:32;5.30;;;1.70;;
10645;SDS011;5371;49.782;9.932;2023-03-11T11:20:00;3.97;;;1.60;;
10645;SDS011;5371;49.782;9.932;2023-03-11T11:22:37;3.60;;;1.70;;
10645;SDS011;5371;49.782;9.932;2023-03-11T11:25:22;3.57;;;1.60;;
10645;SDS011;5371;49.782;9.932;2023-03-11T11:27:54;3.10;;;1.60;;
10645;SDS011;5371;49.782;9.932;2023-03-11T11:30:22;3.93;;;1.50;;
10645;SDS011;5371;49.782;9.932;2023-03-11T11:32:50;3.63;;;1.40;;
10645;SDS011;5371;49.782;9.932;2023-03-11T11:35:18;4.53;;;1.80;;
10645;SDS011;5371;49.782;9.932;2023-03-11T11:37:47;2.73;;;1.77;;
10645;SDS011;5371;49.782;9.932;2023-03-11T11:40:18;4.37;;;1.93;;
10645;SDS011;5371;49.782;9.932;2023-03-11T11:42:51;5.33;;;1.70;;
10645;SDS011;5371;49.782;9.932;2023-03-11T11:45:25;4.80;;;1.70;;
10645;SDS011;5371;49.782;9.932;2023-03-11T11:47:57;4.17;;;1.90;;
10645;SDS011;5371;49.782;9.932;2023-03-11T11:50:30;4.17;;;1.77;;
10645;SDS011;5371;49.782;9.932;2023-03-11T11:53:00;3.83;;;1.70;;
10645;SDS011;5371;49.782;9.932;2023-03-11T11:55:33;3.23;;;1.50;;
10645;SDS011;5371;49.782;9.932;2023-03-11T11:58:03;2.67;;;1.70;;
10645;SDS011;5371;49.782;9.932;2023-03-11T12:00:36;5.17;;;1.67;;
10645;SDS011;5371;49.782;9.932;2023-03-11T12:03:18;5.47;;;1.63;;
10645;SDS011;5371;49.782;9.932;2023-03-11T12:06:12;2.97;;;1.50;;
10645;SDS011;5371;49.782;9.932;2023-03-11T12:08:46;4.37;;;1.50;;
10645;SDS011;5371;49.782;9.932;2023-03-11T12:11:30;6.20;;;1.57;;
10645;SDS011;5371;49.782;9.932;2023-03-11T12:14:04;5.40;;;1.60;;
10645;SDS011;5371;49.782;9.932;2023-03-11T12:16:40;3.93;;;1.80;;
10645;SDS011;5371;49.782;9.932;2023-03-11T12:19:32;3.27;;;1.60;;
10645;SDS011;5371;49.782;9.932;2023-03-11T12:22:13;1.93;;;1.40;;
10645;SDS011;5371;49.782;9.932;2023-03-11T12:25:09;3.93;;;1.67;;
10645;SDS011;5371;49.782;9.932;2023-03-11T12:27:52;4.27;;;1.60;;
10645;SDS011;5371;49.782;9.932;2023-03-11T12:30:27;3.90;;;1.90;;
10645;SDS011;5371;49.782;9.932;2023-03-11T12:32:57;2.23;;;1.67;;
10645;SDS011;5371;49.782;9.932;2023-03-11T12:35:29;3.57;;;1.70;;
10645;SDS011;5371;49.782;9.932;2023-03-11T12:38:00;4.20;;;1.70;;
10645;SDS011;5371;49.782;9.932;2023-03-11T12:43:25;3.90;;;2.00;;
10645;SDS011;5371;49.782;9.932;2023-03-11T12:45:56;3.00;;;1.83;;
10645;SDS011;5371;49.782;9.932;2023-03-11T12:48:30;3.23;;;1.80;;
10645;SDS011;5371;49.782;9.932;2023-03-11T12:50:59;2.50;;;1.60;;
10645;SDS011;5371;49.782;9.932;2023-03-11T12:53:43;3.40;;;1.70;;
10645;SDS011;5371;49.782;9.932;2023-03-11T12:56:15;3.47;;;1.70;;
10645;SDS011;5371;49.782;9.932;2023-03-11T12:58:59;4.13;;;1.77;;
10645;SDS011;5371;49.782;9.932;2023-03-11T13:01:52;3.07;;;1.43;;
10645;SDS011;5371;49.782;9.932;2023-03-11T13:04:30;2.20;;;1.30;;
10645;SDS011;5371;49.782;9.932;2023-03-11T13:10:13;2.70;;;1.50;;
10645;SDS011;5371;49.782;9.932;2023-03-11T13:12:43;3.63;;;1.70;;
10645;SDS011;5371;49.782;9.932;2023-03-11T13:15:32;4.63;;;1.60;;
10645;SDS011;5371;49.782;9.932;2023-03-11T13:18:03;3.60;;;1.70;;
10645;SDS011;5371;49.782;9.932;2023-03-11T13:20:45;2.73;;;1.63;;
10645;SDS011;5371;49.782;9.932;2023-03-11T13:26:08;3.10;;;1.50;;
10645;SDS011;5371;49.782;9.932;2023-03-11T13:28:50;3.37;;;1.50;;
10645;SDS011;5371;49.782;9.932;2023-03-11T13:31:41;3.50;;;1.63;;
10645;SDS011;5371;49.782;9.932;2023-03-11T13:34:22;3.10;;;1.50;;
10645;SDS011;5371;49.782;9.932;2023-03-11T13:37:08;3.87;;;1.60;;
10645;SDS011;5371;49.782;9.932;2023-03-11T13:39:44;2.37;;;1.33;;
10645;SDS011;5371;49.782;9.932;2023-03-11T13:42:22;3.03;;;1.67;;
10645;SDS011;5371;49.782;9.932;2023-03-11T13:44:55;5.90;;;1.90;;
10645;SDS011;5371;49.782;9.932;2023-03-11T13:47:23;3.93;;;1.90;;
10645;SDS011;5371;49.782;9.932;2023-03-11T13:49:53;5.33;;;1.90;;
10645;SDS011;5371;49.782;9.932;2023-03-11T13:52:28;4.47;;;1.57;;
10645;SDS011;5371;49.782;9.932;2023-03-11T13:55:00;3.63;;;1.90;;
10645;SDS011;5371;49.782;9.932;2023-03-11T13:57:31;3.23;;;1.40;;
10645;SDS011;5371;49.782;9.932;2023-03-11T14:00:04;2.90;;;1.40;;
10645;SDS011;5371;49.782;9.932;2023-03-11T14:02:42;3.33;;;1.37;;
10645;SDS011;5371;49.782;9.932;2023-03-11T14:05:14;4.33;;;1.40;;
10645;SDS011;5371;49.782;9.932;2023-03-11T14:07:42;3.63;;;1.77;;
10645;SDS011;5371;49.782;9.932;2023-03-11T14:13:05;3.70;;;1.63;;
10645;SDS011;5371;49.782;9.932;2023-03-11T14:15:42;5.23;;;2.00;;
10645;SDS011;5371;49.782;9.932;2023-03-11T14:18:26;2.10;;;1.50;;
10645;SDS011;5371;49.782;9.932;2023-03-11T14:20:57;4.63;;;1.70;;
10645;SDS011;5371;49.782;9.932;2023-03-11T14:23:27;3.73;;;1.53;;
10645;SDS011;5371;49.782;9.932;2023-03-11T14:25:57;3.37;;;1.40;;
10645;SDS011;5371;49.782;9.932;2023-03-11T14:28:26;4.30;;;1.63;;
10645;SDS011;5371;49.782;9.932;2023-03-11T14:30:56;3.67;;;1.50;;
10645;SDS011;5371;49.782;9.932;2023-03-11T14:33:24;3.77;;;1.50;;
10645;SDS011;5371;49.782;9.932;2023-03-11T14:35:52;3.00;;;1.60;;
10645;SDS011;5371;49.782;9.932;2023-03-11T14:38:23;3.10;;;1.63;;
10645;SDS011;5371;49.782;9.932;2023-03-11T14:40:51;3.57;;;1.80;;
10645;SDS011;5371;49.782;9.932;2023-03-11T14:43:20;2.80;;;1.40;;
10645;SDS011;5371;49.782;9.932;2023-03-11T14:45:47;2.73;;;1.40;;
10645;SDS011;5371;49.782;9.932;2023-03-11T14:48:17;7.93;;;3.80;;
10645;SDS011;5371;49.782;9.932;2023-03-11T14:50:50;3.33;;;1.90;;
10645;SDS011;5371;49.782;9.932;2023-03-11T14:53:18;5.87;;;2.03;;
10645;SDS011;5371;49.782;9.932;2023-03-11T14:55:51;2.80;;;1.70;;
10645;SDS011;5371;49.782;9.932;2023-03-11T14:58:24;3.67;;;1.80;;
10645;SDS011;5371;49.782;9.932;2023-03-11T15:00:57;3.47;;;1.77;;
10645;SDS011;5371;49.782;9.932;2023-03-11T15:03:29;3.37;;;1.60;;
10645;SDS011;5371;49.782;9.932;2023-03-11T15:05:59;4.83;;;2.37;;
10645;SDS011;5371;49.782;9.932;2023-03-11T15:08:33;4.90;;;2.00;;
10645;SDS011;5371;49.782;9.932;2023-03-11T15:11:04;4.63;;;1.90;;
10645;SDS011;5371;49.782;9.932;2023-03-11T15:13:33;5.47;;;2.57;;
10645;SDS011;5371;49.782;9.932;2023-03-11T15:16:02;4.93;;;2.60;;
10645;SDS011;5371;49.782;9.932;2023-03-11T15:18:32;3.97;;;2.00;;
10645;SDS011;5371;49.782;9.932;2023-03-11T15:21:03;4.67;;;1.83;;
10645;SDS011;5371;49.782;9.932;2023-03-11T15:23:33;5.03;;;1.97;;
10645;SDS011;5371;49.782;9.932;2023-03-11T15:26:01;3.97;;;1.70;;
10645;SDS011;5371;49.782;9.932;2023-03-11T15:28:33;3.47;;;1.90;;
10645;SDS011;5371;49.782;9.932;2023-03-11T15:31:16;7.57;;;3.10;;
10645;SDS011;5371;49.782;9.932;2023-03-11T15:34:05;4.03;;;2.50;;